sensor_id;sensor_type;location;lat;lon;timestamp;P1;durP1;ratioP1;P2;durP2;ratioP2
4112;SDS011;2070;51.042;7.056;2023-04-01T00:02:18;3.67;;;0.50;;
4112;SDS011;2070;51.042;7.056;2023-04-01T00:04:44;0.87;;;0.70;;
4112;SDS011;2070;51.042;7.056;2023-04-01T00:07:09;1.20;;;0.60;;
4112;SDS011;2070;51.042;7.056;2023-04-01T00:09:35;2.07;;;0.50;;
4112;SDS011;2070;51.042;7.056;2023-04-01T00:12:00;3.47;;;1.17;;
4112;SDS011;2070;51.042;7.056;2023-04-01T00:14:26;0.70;;;0.40;;
4112;SDS011;2070;51.042;7.056;2023-04-01T00:16:51;2.60;;;0.83;;
4112;SDS011;2070;51.042;7.056;2023-04-01T00:19:17;0.70;;;0.40;;
4112;SDS011;2070;51.042;7.056;2023-04-01T00:21:42;1.53;;;0.50;;
4112;SDS011;2070;51.042;7.056;2023-04-01T00:24:08;1.13;;;0.57;;
4112;SDS011;2070;51.042;7.056;2023-04-01T00:26:33;4.97;;;0.50;;
4112;SDS011;2070;51.042;7.056;2023-04-01T00:28:58;3.13;;;0.60;;
4112;SDS011;2070;51.042;7.056;2023-04-01T00:31:24;0.83;;;0.57;;
4112;SDS011;2070;51.042;7.056;2023-04-01T00:33:49;0.70;;;0.40;;
4112;SDS011;2070;51.042;7.056;2023-04-01T00:36:17;0.80;;;0.60;;
4112;SDS011;2070;51.042;7.056;2023-04-01T00:38:42;0.80;;;0.47;;
4112;SDS011;2070;51.042;7.056;2023-04-01T00:41:08;1.73;;;0.50;;
4112;SDS011;2070;51.042;7.056;2023-04-01T00:43:34;1.30;;;0.57;;
4112;SDS011;2070;51.042;7.056;2023-04-01T00:45:59;0.70;;;0.40;;
4112;SDS011;2070;51.042;7.056;2023-04-01T00:48:26;3.07;;;0.40;;
4112;SDS011;2070;51.042;7.056;2023-04-01T00:51:04;0.77;;;0.50;;
4112;SDS011;2070;51.042;7.056;2023-04-01T00:53:31;2.97;;;0.50;;
4112;SDS011;2070;51.042;7.056;2023-04-01T00:56:04;1.30;;;0.60;;
4112;SDS011;2070;51.042;7.056;2023-04-01T00:58:32;0.80;;;0.43;;
4112;SDS011;2070;51.042;7.056;2023-04-01T01:01:00;2.03;;;0.90;;
4112;SDS011;2070;51.042;7.056;2023-04-01T01:03:25;0.70;;;0.40;;
4112;SDS011;2070;51.042;7.056;2023-04-01T01:06:10;10.20;;;0.63;;
4112;SDS011;2070;51.042;7.056;2023-04-01T01:11:02;0.90;;;0.57;;
4112;SDS011;2070;51.042;7.056;2023-04-01T01:13:41;1.93;;;0.60;;
4112;SDS011;2070;51.042;7.056;2023-04-01T01:26:46;6.20;;;0.47;;
4112;SDS011;2070;51.042;7.056;2023-04-01T01:32:07;1.20;;;0.70;;
4112;SDS011;2070;51.042;7.056;2023-04-01T01:37:12;1.83;;;0.43;;
4112;SDS011;2070;51.042;7.056;2023-04-01T01:39:38;1.47;;;0.60;;
4112;SDS011;2070;51.042;7.056;2023-04-01T01:42:05;0.77;;;0.50;;
4112;SDS011;2070;51.042;7.056;2023-04-01T01:44:31;2.03;;;0.80;;
4112;SDS011;2070;51.042;7.056;2023-04-01T01:46:57;1.20;;;0.60;;
4112;SDS011;2070;51.042;7.056;2023-04-01T01:49:23;3.23;;;0.50;;
4112;SDS011;2070;51.042;7.056;2023-04-01T01:51:48;0.83;;;0.70;;
4112;SDS011;2070;51.042;7.056;2023-04-01T01:54:14;0.67;;;0.40;;
4112;SDS011;2070;51.042;7.056;2023-04-01T01:56:39;0.67;;;0.43;;
4112;SDS011;2070;51.042;7.056;2023-04-01T01:59:07;0.70;;;0.40;;
4112;SDS011;2070;51.042;7.056;2023-04-01T02:01:34;0.90;;;0.40;;
4112;SDS011;2070;51.042;7.056;2023-04-01T02:04:00;2.37;;;0.60;;
4112;SDS011;2070;51.042;7.056;2023-04-01T02:06:28;0.80;;;0.40;;
4112;SDS011;2070;51.042;7.056;2023-04-01T02:08:58;2.90;;;0.50;;
4112;SDS011;2070;51.042;7.056;2023-04-01T02:11:35;0.60;;;0.40;;
4112;SDS011;2070;51.042;7.056;2023-04-01T02:14:04;0.70;;;0.50;;
4112;SDS011;2070;51.042;7.056;2023-04-01T02:16:50;2.80;;;0.80;;
4112;SDS011;2070;51.042;7.056;2023-04-01T02:19:17;2.03;;;0.40;;
4112;SDS011;2070;51.042;7.056;2023-04-01T02:21:47;0.93;;;0.53;;
4112;SDS011;2070;51.042;7.056;2023-04-01T02:24:13;0.70;;;0.40;;
4112;SDS011;2070;51.042;7.056;2023-04-01T02:26:40;0.70;;;0.47;;
4112;SDS011;2070;51.042;7.056;2023-04-01T02:29:05;0.70;;;0.47;;
4112;SDS011;2070;51.042;7.056;2023-04-01T02:31:31;0.70;;;0.40;;
4112;SDS011;2070;51.042;7.056;2023-04-01T02:33:57;0.60;;;0.40;;
4112;SDS011;2070;51.042;7.056;2023-04-01T02:36:22;1.90;;;0.53;;
4112;SDS011;2070;51.042;7.056;2023-04-01T02:38:48;1.07;;;0.37;;
4112;SDS011;2070;51.042;7.056;2023-04-01T02:41:14;0.60;;;0.40;;
4112;SDS011;2070;51.042;7.056;2023-04-01T02:43:40;0.70;;;0.50;;
4112;SDS011;2070;51.042;7.056;2023-04-01T02:46:06;0.63;;;0.40;;
4112;SDS011;2070;51.042;7.056;2023-04-01T02:48:31;0.80;;;0.40;;
4112;SDS011;2070;51.042;7.056;2023-04-01T02:50:56;0.70;;;0.40;;
4112;SDS011;2070;51.042;7.056;2023-04-01T02:53:23;1.10;;;0.40;;
4112;SDS011;2070;51.042;7.056;2023-04-01T02:55:48;0.80;;;0.67;;
4112;SDS011;2070;51.042;7.056;2023-04-01T02:58:15;2.10;;;0.80;;
4112;SDS011;2070;51.042;7.056;2023-04-01T03:00:40;0.70;;;0.40;;
4112;SDS011;2070;51.042;7.056;2023-04-01T03:03:05;0.80;;;0.50;;
4112;SDS011;2070;51.042;7.056;2023-04-01T03:05:31;0.70;;;0.43;;
4112;SDS011;2070;51.042;7.056;2023-04-01T03:07:56;2.03;;;0.40;;
4112;SDS011;2070;51.042;7.056;2023-04-01T03:10:21;0.83;;;0.47;;
4112;SDS011;2070;51.042;7.056;2023-04-01T03:12:46;0.70;;;0.40;;
4112;SDS011;2070;51.042;7.056;2023-04-01T03:15:12;1.30;;;0.43;;
4112;SDS011;2070;51.042;7.056;2023-04-01T03:17:39;0.80;;;0.50;;
4112;SDS011;2070;51.042;7.056;2023-04-01T03:20:04;2.43;;;0.40;;
4112;SDS011;2070;51.042;7.056;2023-04-01T03:22:30;1.00;;;0.40;;
4112;SDS011;2070;51.042;7.056;2023-04-01T03:24:55;0.80;;;0.50;;
4112;SDS011;2070;51.042;7.056;2023-04-01T03:27:21;0.70;;;0.50;;
4112;SDS011;2070;51.042;7.056;2023-04-01T03:29:46;1.70;;;0.97;;
4112;SDS011;2070;51.042;7.056;2023-04-01T03:32:11;0.70;;;0.40;;
4112;SDS011;2070;51.042;7.056;2023-04-01T03:34:36;0.77;;;0.40;;
4112;SDS011;2070;51.042;7.056;2023-04-01T03:37:01;1.70;;;0.60;;
4112;SDS011;2070;51.042;7.056;2023-04-01T03:39:27;0.73;;;0.50;;
4112;SDS011;2070;51.042;7.056;2023-04-01T03:41:52;1.10;;;0.50;;
4112;SDS011;2070;51.042;7.056;2023-04-01T03:44:17;0.70;;;0.40;;
4112;SDS011;2070;51.042;7.056;2023-04-01T03:46:42;0.80;;;0.50;;
4112;SDS011;2070;51.042;7.056;2023-04-01T03:49:08;0.70;;;0.40;;
4112;SDS011;2070;51.042;7.056;2023-04-01T03:51:42;2.10;;;0.40;;
4112;SDS011;2070;51.042;7.056;2023-04-01T03:54:08;4.80;;;0.40;;
4112;SDS011;2070;51.042;7.056;2023-04-01T03:56:33;0.70;;;0.37;;
4112;SDS011;2070;51.042;7.056;2023-04-01T03:59:00;0.80;;;0.40;;
4112;SDS011;2070;51.042;7.056;2023-04-01T04:01:26;1.10;;;0.40;;
4112;SDS011;2070;51.042;7.056;2023-04-01T04:03:51;1.20;;;0.40;;
4112;SDS011;2070;51.042;7.056;2023-04-01T04:06:17;1.13;;;0.40;;
4112;SDS011;2070;51.042;7.056;2023-04-01T04:08:43;0.70;;;0.40;;
4112;SDS011;2070;51.042;7.056;2023-04-01T04:11:09;0.70;;;0.40;;
4112;SDS011;2070;51.042;7.056;2023-04-01T04:13:34;0.70;;;0.40;;
4112;SDS011;2070;51.042;7.056;2023-04-01T04:16:00;0.80;;;0.60;;
4112;SDS011;2070;51.042;7.056;2023-04-01T04:18:26;0.67;;;0.40;;
4112;SDS011;2070;51.042;7.056;2023-04-01T04:20:51;0.60;;;0.40;;
4112;SDS011;2070;51.042;7.056;2023-04-01T04:23:16;1.87;;;0.60;;
4112;SDS011;2070;51.042;7.056;2023-04-01T04:25:52;0.73;;;0.50;;
4112;SDS011;2070;51.042;7.056;2023-04-01T04:28:17;0.80;;;0.43;;
4112;SDS011;2070;51.042;7.056;2023-04-01T04:30:42;2.10;;;0.50;;
4112;SDS011;2070;51.042;7.056;2023-04-01T04:33:07;0.67;;;0.40;;
4112;SDS011;2070;51.042;7.056;2023-04-01T04:35:33;0.60;;;0.40;;
4112;SDS011;2070;51.042;7.056;2023-04-01T04:37:58;0.70;;;0.43;;
4112;SDS011;2070;51.042;7.056;2023-04-01T04:40:23;2.60;;;0.50;;
4112;SDS011;2070;51.042;7.056;2023-04-01T04:42:48;5.83;;;0.50;;
4112;SDS011;2070;51.042;7.056;2023-04-01T04:45:13;1.40;;;0.43;;
4112;SDS011;2070;51.042;7.056;2023-04-01T04:47:39;2.07;;;0.50;;
4112;SDS011;2070;51.042;7.056;2023-04-01T04:50:04;0.67;;;0.43;;
4112;SDS011;2070;51.042;7.056;2023-04-01T04:52:29;9.70;;;0.67;;
4112;SDS011;2070;51.042;7.056;2023-04-01T04:54:54;7.00;;;0.50;;
4112;SDS011;2070;51.042;7.056;2023-04-01T04:57:20;0.70;;;0.40;;
4112;SDS011;2070;51.042;7.056;2023-04-01T04:59:45;1.27;;;0.40;;
4112;SDS011;2070;51.042;7.056;2023-04-01T05:02:10;0.70;;;0.40;;
4112;SDS011;2070;51.042;7.056;2023-04-01T05:04:36;0.70;;;0.40;;
4112;SDS011;2070;51.042;7.056;2023-04-01T05:07:01;1.10;;;0.60;;
4112;SDS011;2070;51.042;7.056;2023-04-01T05:09:26;1.03;;;0.50;;
4112;SDS011;2070;51.042;7.056;2023-04-01T05:11:51;0.70;;;0.50;;
4112;SDS011;2070;51.042;7.056;2023-04-01T05:14:17;0.63;;;0.40;;
4112;SDS011;2070;51.042;7.056;2023-04-01T05:16:42;0.63;;;0.40;;
4112;SDS011;2070;51.042;7.056;2023-04-01T05:19:07;1.07;;;0.40;;
4112;SDS011;2070;51.042;7.056;2023-04-01T05:21:32;1.27;;;0.43;;
4112;SDS011;2070;51.042;7.056;2023-04-01T05:23:58;0.90;;;0.90;;
4112;SDS011;2070;51.042;7.056;2023-04-01T05:26:23;2.47;;;0.40;;
4112;SDS011;2070;51.042;7.056;2023-04-01T05:28:48;1.53;;;0.60;;
4112;SDS011;2070;51.042;7.056;2023-04-01T05:31:13;0.80;;;0.70;;
4112;SDS011;2070;51.042;7.056;2023-04-01T05:33:38;1.07;;;0.50;;
4112;SDS011;2070;51.042;7.056;2023-04-01T05:36:10;0.70;;;0.50;;
4112;SDS011;2070;51.042;7.056;2023-04-01T05:38:36;0.70;;;0.40;;
4112;SDS011;2070;51.042;7.056;2023-04-01T05:41:02;0.67;;;0.40;;
4112;SDS011;2070;51.042;7.056;2023-04-01T05:43:27;1.83;;;0.50;;
4112;SDS011;2070;51.042;7.056;2023-04-01T05:45:52;0.90;;;0.70;;
4112;SDS011;2070;51.042;7.056;2023-04-01T05:48:18;0.63;;;0.50;;
4112;SDS011;2070;51.042;7.056;2023-04-01T05:50:43;1.63;;;0.40;;
4112;SDS011;2070;51.042;7.056;2023-04-01T05:53:08;1.30;;;1.00;;
4112;SDS011;2070;51.042;7.056;2023-04-01T05:55:34;4.10;;;1.00;;
4112;SDS011;2070;51.042;7.056;2023-04-01T05:57:59;0.70;;;0.40;;
4112;SDS011;2070;51.042;7.056;2023-04-01T06:00:25;0.70;;;0.50;;
4112;SDS011;2070;51.042;7.056;2023-04-01T06:02:50;0.63;;;0.43;;
4112;SDS011;2070;51.042;7.056;2023-04-01T06:05:18;0.80;;;0.60;;
4112;SDS011;2070;51.042;7.056;2023-04-01T06:07:43;1.20;;;0.50;;
4112;SDS011;2070;51.042;7.056;2023-04-01T06:10:10;2.17;;;0.90;;
4112;SDS011;2070;51.042;7.056;2023-04-01T06:12:57;0.70;;;0.50;;
4112;SDS011;2070;51.042;7.056;2023-04-01T06:15:28;3.73;;;0.73;;
4112;SDS011;2070;51.042;7.056;2023-04-01T06:28:47;1.10;;;0.60;;
4112;SDS011;2070;51.042;7.056;2023-04-01T06:33:51;1.27;;;0.90;;
4112;SDS011;2070;51.042;7.056;2023-04-01T06:54:10;0.93;;;0.77;;
4112;SDS011;2070;51.042;7.056;2023-04-01T06:56:37;3.47;;;0.80;;
4112;SDS011;2070;51.042;7.056;2023-04-01T07:01:32;0.90;;;0.73;;
4112;SDS011;2070;51.042;7.056;2023-04-01T07:04:00;0.97;;;0.80;;
4112;SDS011;2070;51.042;7.056;2023-04-01T07:06:29;1.30;;;1.10;;
4112;SDS011;2070;51.042;7.056;2023-04-01T07:08:55;1.40;;;0.90;;
4112;SDS011;2070;51.042;7.056;2023-04-01T07:11:28;1.57;;;0.90;;
4112;SDS011;2070;51.042;7.056;2023-04-01T07:14:01;1.67;;;0.83;;
4112;SDS011;2070;51.042;7.056;2023-04-01T07:18:58;2.27;;;1.30;;
4112;SDS011;2070;51.042;7.056;2023-04-01T07:23:51;1.65;;;0.70;;
4112;SDS011;2070;51.042;7.056;2023-04-01T07:26:19;0.90;;;0.60;;
4112;SDS011;2070;51.042;7.056;2023-04-01T07:28:45;1.50;;;1.10;;
4112;SDS011;2070;51.042;7.056;2023-04-01T07:31:16;3.17;;;1.00;;
4112;SDS011;2070;51.042;7.056;2023-04-01T07:36:36;2.23;;;1.30;;
4112;SDS011;2070;51.042;7.056;2023-04-01T07:41:42;1.93;;;1.53;;
4112;SDS011;2070;51.042;7.056;2023-04-01T07:54:29;2.10;;;1.90;;
4112;SDS011;2070;51.042;7.056;2023-04-01T07:57:03;2.43;;;1.50;;
4112;SDS011;2070;51.042;7.056;2023-04-01T08:12:07;8.10;;;3.20;;
4112;SDS011;2070;51.042;7.056;2023-04-01T08:14:45;10.90;;;3.80;;
4112;SDS011;2070;51.042;7.056;2023-04-01T08:17:16;4.67;;;2.80;;
4112;SDS011;2070;51.042;7.056;2023-04-01T08:22:21;5.00;;;2.30;;
4112;SDS011;2070;51.042;7.056;2023-04-01T08:24:48;4.80;;;2.13;;
4112;SDS011;2070;51.042;7.056;2023-04-01T08:29:41;4.77;;;2.40;;
4112;SDS011;2070;51.042;7.056;2023-04-01T08:32:11;5.47;;;2.27;;
4112;SDS011;2070;51.042;7.056;2023-04-01T08:34:38;2.50;;;2.27;;
4112;SDS011;2070;51.042;7.056;2023-04-01T08:37:04;2.37;;;1.40;;
4112;SDS011;2070;51.042;7.056;2023-04-01T08:39:37;3.43;;;2.17;;
4112;SDS011;2070;51.042;7.056;2023-04-01T09:06:12;5.80;;;2.90;;
4112;SDS011;2070;51.042;7.056;2023-04-01T09:08:52;12.13;;;2.30;;
4112;SDS011;2070;51.042;7.056;2023-04-01T09:14:10;2.20;;;1.20;;
4112;SDS011;2070;51.042;7.056;2023-04-01T09:21:57;1.90;;;0.83;;
4112;SDS011;2070;51.042;7.056;2023-04-01T09:24:33;1.23;;;0.97;;
4112;SDS011;2070;51.042;7.056;2023-04-01T10:08:56;4.23;;;2.03;;
4112;SDS011;2070;51.042;7.056;2023-04-01T10:19:35;1.60;;;1.50;;
4112;SDS011;2070;51.042;7.056;2023-04-01T10:27:43;1.93;;;1.73;;
4112;SDS011;2070;51.042;7.056;2023-04-01T10:35:25;2.23;;;2.13;;
4112;SDS011;2070;51.042;7.056;2023-04-01T10:46:03;1.97;;;1.87;;
4112;SDS011;2070;51.042;7.056;2023-04-01T10:51:25;3.50;;;2.10;;
4112;SDS011;2070;51.042;7.056;2023-04-01T11:07:22;7.43;;;3.27;;
4112;SDS011;2070;51.042;7.056;2023-04-01T11:28:55;3.30;;;3.00;;
4112;SDS011;2070;51.042;7.056;2023-04-01T11:41:48;7.30;;;3.23;;
4112;SDS011;2070;51.042;7.056;2023-04-01T11:44:21;3.00;;;2.80;;
4112;SDS011;2070;51.042;7.056;2023-04-01T11:54:35;2.13;;;1.97;;
4112;SDS011;2070;51.042;7.056;2023-04-01T12:02:11;3.37;;;2.97;;
4112;SDS011;2070;51.042;7.056;2023-04-01T12:10:12;2.03;;;1.93;;
4112;SDS011;2070;51.042;7.056;2023-04-01T12:18:18;2.20;;;2.00;;
4112;SDS011;2070;51.042;7.056;2023-04-01T12:31:33;2.27;;;1.90;;
4112;SDS011;2070;51.042;7.056;2023-04-01T12:34:13;2.50;;;2.00;;
4112;SDS011;2070;51.042;7.056;2023-04-01T12:36:57;2.97;;;2.77;;
4112;SDS011;2070;51.042;7.056;2023-04-01T12:39:30;1.87;;;1.73;;
4112;SDS011;2070;51.042;7.056;2023-04-01T12:49:55;1.80;;;1.60;;
4112;SDS011;2070;51.042;7.056;2023-04-01T12:53:05;2.60;;;2.40;;
4112;SDS011;2070;51.042;7.056;2023-04-01T13:10:59;2.77;;;2.00;;
4112;SDS011;2070;51.042;7.056;2023-04-01T13:13:21;2.23;;;2.13;;
4112;SDS011;2070;51.042;7.056;2023-04-01T13:23:52;2.43;;;2.23;;
4112;SDS011;2070;51.042;7.056;2023-04-01T13:36:06;2.53;;;2.33;;
4112;SDS011;2070;51.042;7.056;2023-04-01T13:41:05;2.93;;;2.50;;
4112;SDS011;2070;51.042;7.056;2023-04-01T13:43:33;4.30;;;1.77;;
4112;SDS011;2070;51.042;7.056;2023-04-01T13:56:14;2.70;;;2.50;;
4112;SDS011;2070;51.042;7.056;2023-04-01T14:01:31;3.37;;;3.10;;
4112;SDS011;2070;51.042;7.056;2023-04-01T14:11:17;4.80;;;2.77;;
4112;SDS011;2070;51.042;7.056;2023-04-01T14:13:52;3.07;;;2.87;;
4112;SDS011;2070;51.042;7.056;2023-04-01T14:24:36;3.07;;;2.87;;
4112;SDS011;2070;51.042;7.056;2023-04-01T14:50:42;3.10;;;2.83;;
4112;SDS011;2070;51.042;7.056;2023-04-01T14:58:15;2.97;;;2.47;;
4112;SDS011;2070;51.042;7.056;2023-04-01T15:01:02;2.70;;;2.50;;
4112;SDS011;2070;51.042;7.056;2023-04-01T15:03:33;3.97;;;2.80;;
4112;SDS011;2070;51.042;7.056;2023-04-01T15:11:46;4.90;;;3.10;;
4112;SDS011;2070;51.042;7.056;2023-04-01T15:14:18;4.20;;;3.23;;
4112;SDS011;2070;51.042;7.056;2023-04-01T15:24:21;4.03;;;3.47;;
4112;SDS011;2070;51.042;7.056;2023-04-01T15:32:15;8.73;;;5.87;;
4112;SDS011;2070;51.042;7.056;2023-04-01T15:35:27;8.30;;;3.70;;
4112;SDS011;2070;51.042;7.056;2023-04-01T15:42:45;4.60;;;3.67;;
4112;SDS011;2070;51.042;7.056;2023-04-01T15:53:32;4.10;;;3.80;;
4112;SDS011;2070;51.042;7.056;2023-04-01T15:58:57;8.53;;;3.77;;
4112;SDS011;2070;51.042;7.056;2023-04-01T16:08:58;6.30;;;3.33;;
4112;SDS011;2070;51.042;7.056;2023-04-01T16:14:07;6.77;;;4.20;;
4112;SDS011;2070;51.042;7.056;2023-04-01T16:22:08;5.63;;;3.27;;
4112;SDS011;2070;51.042;7.056;2023-04-01T16:27:11;5.03;;;3.80;;
4112;SDS011;2070;51.042;7.056;2023-04-01T16:34:34;5.03;;;3.90;;
4112;SDS011;2070;51.042;7.056;2023-04-01T16:37:03;3.77;;;3.47;;
4112;SDS011;2070;51.042;7.056;2023-04-01T16:39:44;6.23;;;3.93;;
4112;SDS011;2070;51.042;7.056;2023-04-01T16:47:17;3.93;;;3.10;;
4112;SDS011;2070;51.042;7.056;2023-04-01T17:00:10;6.57;;;4.60;;
4112;SDS011;2070;51.042;7.056;2023-04-01T17:02:43;4.30;;;4.00;;
4112;SDS011;2070;51.042;7.056;2023-04-01T17:05:12;7.90;;;6.10;;
4112;SDS011;2070;51.042;7.056;2023-04-01T17:23:09;4.50;;;3.37;;
4112;SDS011;2070;51.042;7.056;2023-04-01T17:35:58;12.90;;;7.17;;
4112;SDS011;2070;51.042;7.056;2023-04-01T17:41:10;3.47;;;3.27;;
4112;SDS011;2070;51.042;7.056;2023-04-01T17:51:31;5.60;;;4.30;;
4112;SDS011;2070;51.042;7.056;2023-04-01T18:09:40;3.93;;;3.63;;
4112;SDS011;2070;51.042;7.056;2023-04-01T18:12:27;4.53;;;3.40;;
4112;SDS011;2070;51.042;7.056;2023-04-01T18:17:48;3.10;;;2.83;;
4112;SDS011;2070;51.042;7.056;2023-04-01T18:25:43;3.13;;;2.70;;
4112;SDS011;2070;51.042;7.056;2023-04-01T18:28:19;6.43;;;3.73;;
4112;SDS011;2070;51.042;7.056;2023-04-01T18:38:40;6.20;;;4.47;;
4112;SDS011;2070;51.042;7.056;2023-04-01T18:41:12;6.47;;;5.00;;
4112;SDS011;2070;51.042;7.056;2023-04-01T18:46:16;14.07;;;6.33;;
4112;SDS011;2070;51.042;7.056;2023-04-01T18:48:56;9.10;;;4.87;;
4112;SDS011;2070;51.042;7.056;2023-04-01T18:54:10;4.17;;;3.77;;
4112;SDS011;2070;51.042;7.056;2023-04-01T18:56:37;9.47;;;5.80;;
4112;SDS011;2070;51.042;7.056;2023-04-01T19:01:31;11.60;;;6.90;;
4112;SDS011;2070;51.042;7.056;2023-04-01T19:06:59;9.10;;;5.90;;
4112;SDS011;2070;51.042;7.056;2023-04-01T19:09:32;11.47;;;7.60;;
4112;SDS011;2070;51.042;7.056;2023-04-01T19:12:14;8.33;;;5.77;;
4112;SDS011;2070;51.042;7.056;2023-04-01T19:27:14;10.23;;;6.00;;
4112;SDS011;2070;51.042;7.056;2023-04-01T19:29:56;7.90;;;5.93;;
4112;SDS011;2070;51.042;7.056;2023-04-01T19:32:34;7.00;;;5.50;;
4112;SDS011;2070;51.042;7.056;2023-04-01T19:37:32;9.23;;;6.77;;
4112;SDS011;2070;51.042;7.056;2023-04-01T19:40:08;7.67;;;5.93;;
4112;SDS011;2070;51.042;7.056;2023-04-01T19:45:14;10.20;;;7.17;;
4112;SDS011;2070;51.042;7.056;2023-04-01T19:52:59;10.60;;;7.07;;
4112;SDS011;2070;51.042;7.056;2023-04-01T19:55:47;7.60;;;5.47;;
4112;SDS011;2070;51.042;7.056;2023-04-01T19:58:23;9.57;;;6.10;;
4112;SDS011;2070;51.042;7.056;2023-04-01T20:00:51;9.37;;;7.10;;
4112;SDS011;2070;51.042;7.056;2023-04-01T20:05:48;5.77;;;4.87;;
4112;SDS011;2070;51.042;7.056;2023-04-01T20:15:58;5.43;;;4.80;;
4112;SDS011;2070;51.042;7.056;2023-04-01T20:18:25;5.50;;;5.00;;
4112;SDS011;2070;51.042;7.056;2023-04-01T20:20:54;4.23;;;3.83;;
4112;SDS011;2070;51.042;7.056;2023-04-01T20:23:26;5.23;;;4.70;;
4112;SDS011;2070;51.042;7.056;2023-04-01T20:26:06;8.03;;;5.50;;
4112;SDS011;2070;51.042;7.056;2023-04-01T20:28:37;4.63;;;4.13;;
4112;SDS011;2070;51.042;7.056;2023-04-01T20:31:18;12.73;;;7.30;;
4112;SDS011;2070;51.042;7.056;2023-04-01T20:36:41;11.33;;;8.60;;
4112;SDS011;2070;51.042;7.056;2023-04-01T20:39:18;11.00;;;6.63;;
4112;SDS011;2070;51.042;7.056;2023-04-01T20:46:48;9.80;;;6.50;;
4112;SDS011;2070;51.042;7.056;2023-04-01T20:51:39;14.70;;;8.20;;
4112;SDS011;2070;51.042;7.056;2023-04-01T20:54:30;15.50;;;9.97;;
4112;SDS011;2070;51.042;7.056;2023-04-01T20:57:06;17.10;;;9.97;;
4112;SDS011;2070;51.042;7.056;2023-04-01T21:07:46;45.23;;;13.23;;
4112;SDS011;2070;51.042;7.056;2023-04-01T21:13:10;41.30;;;15.77;;
4112;SDS011;2070;51.042;7.056;2023-04-01T21:38:48;13.07;;;6.87;;
4112;SDS011;2070;51.042;7.056;2023-04-01T21:44:00;8.10;;;5.50;;
4112;SDS011;2070;51.042;7.056;2023-04-01T21:51:58;7.67;;;5.97;;
4112;SDS011;2070;51.042;7.056;2023-04-01T22:05:02;8.93;;;6.30;;
4112;SDS011;2070;51.042;7.056;2023-04-01T22:12:45;8.65;;;6.35;;
4112;SDS011;2070;51.042;7.056;2023-04-01T22:17:48;9.10;;;6.27;;
4112;SDS011;2070;51.042;7.056;2023-04-01T22:25:18;7.07;;;5.53;;
4112;SDS011;2070;51.042;7.056;2023-04-01T22:27:49;6.97;;;5.63;;
4112;SDS011;2070;51.042;7.056;2023-04-01T22:30:23;9.30;;;6.40;;
4112;SDS011;2070;51.042;7.056;2023-04-01T22:32:49;13.13;;;6.07;;
4112;SDS011;2070;51.042;7.056;2023-04-01T22:35:33;7.20;;;5.50;;
4112;SDS011;2070;51.042;7.056;2023-04-01T22:43:04;9.70;;;6.30;;
4112;SDS011;2070;51.042;7.056;2023-04-01T22:50:32;11.50;;;6.50;;
4112;SDS011;2070;51.042;7.056;2023-04-01T22:53:06;8.53;;;5.27;;
4112;SDS011;2070;51.042;7.056;2023-04-01T22:55:34;8.20;;;5.17;;
4112;SDS011;2070;51.042;7.056;2023-04-01T22:58:03;10.90;;;6.90;;
4112;SDS011;2070;51.042;7.056;2023-04-01T23:03:19;8.00;;;5.73;;
4112;SDS011;2070;51.042;7.056;2023-04-01T23:05:48;7.87;;;5.80;;
4112;SDS011;2070;51.042;7.056;2023-04-01T23:10:56;9.07;;;5.50;;
4112;SDS011;2070;51.042;7.056;2023-04-01T23:13:45;10.80;;;6.33;;
4112;SDS011;2070;51.042;7.056;2023-04-01T23:16:09;12.17;;;6.00;;
4112;SDS011;2070;51.042;7.056;2023-04-01T23:24:21;7.47;;;5.40;;
4112;SDS011;2070;51.042;7.056;2023-04-01T23:26:59;9.87;;;6.30;;
4112;SDS011;2070;51.042;7.056;2023-04-01T23:29:26;7.27;;;5.90;;
4112;SDS011;2070;51.042;7.056;2023-04-01T23:32:01;10.60;;;6.83;;
4112;SDS011;2070;51.042;7.056;2023-04-01T23:34:30;8.50;;;6.37;;
4112;SDS011;2070;51.042;7.056;2023-04-01T23:36:57;9.57;;;7.27;;
4112;SDS011;2070;51.042;7.056;2023-04-01T23:39:33;8.43;;;5.57;;
4112;SDS011;2070;51.042;7.056;2023-04-01T23:42:04;8.53;;;5.87;;
4112;SDS011;2070;51.042;7.056;2023-04-01T23:44:30;9.93;;;6.60;;
4112;SDS011;2070;51.042;7.056;2023-04-01T23:46:56;8.83;;;5.80;;
4112;SDS011;2070;51.042;7.056;2023-04-01T23:49:23;8.57;;;7.00;;
4112;SDS011;2070;51.042;7.056;2023-04-01T23:51:56;11.83;;;6.47;;
4112;SDS011;2070;51.042;7.056;2023-04-01T23:54:24;7.97;;;5.87;;
4112;SDS011;2070;51.042;7.056;2023-04-01T23:56:54;8.93;;;6.87;;
4112;SDS011;2070;51.042;7.056;2023-04-01T23:59:24;7.60;;;5.63;;
